Who's Online

We have 2 guests online

GK Weather

An error occured during parsing XML data. Please try again.

Aviation WX

[source: ADDS]
METAR
KIAD 200852Z 00000KT 10SM FEW250 M05/M07 A3026 RMK AO2 SLP251 T10501072 51009 =
TAF
KIAD 200900Z 2009/2112 33004KT P6SM FEW250 FM201700 35005KT P6SM BKN110 =
SR / SS: 02:04 / 11:35 UTC (Washington-Dulles 2014-12-20)

JoomlaWatch Agent

Home Links
We are regularly out on the Web. When we find a great site we list it.